sensor_id;sensor_type;location;lat;lon;timestamp;temperature;humidity
2226;DHT22;1119;48.288;8.726;2022-10-22T00:01:35;13.20;99.90
2226;DHT22;1119;48.288;8.726;2022-10-22T00:04:08;13.20;99.90
2226;DHT22;1119;48.288;8.726;2022-10-22T00:06:40;13.10;99.90
2226;DHT22;1119;48.288;8.726;2022-10-22T00:09:13;13.00;99.90
2226;DHT22;1119;48.288;8.726;2022-10-22T00:11:46;13.00;99.90
2226;DHT22;1119;48.288;8.726;2022-10-22T00:14:19;13.00;99.90
2226;DHT22;1119;48.288;8.726;2022-10-22T00:16:53;12.80;99.90
2226;DHT22;1119;48.288;8.726;2022-10-22T00:19:28;12.80;99.90
2226;DHT22;1119;48.288;8.726;2022-10-22T00:22:02;12.80;99.90
2226;DHT22;1119;48.288;8.726;2022-10-22T00:24:37;12.80;99.90
2226;DHT22;1119;48.288;8.726;2022-10-22T00:27:13;12.80;99.90
2226;DHT22;1119;48.288;8.726;2022-10-22T00:29:46;12.90;99.90
2226;DHT22;1119;48.288;8.726;2022-10-22T00:32:16;12.90;99.90
2226;DHT22;1119;48.288;8.726;2022-10-22T00:34:51;12.80;99.90
2226;DHT22;1119;48.288;8.726;2022-10-22T00:37:24;12.90;99.90
2226;DHT22;1119;48.288;8.726;2022-10-22T00:39:58;12.90;99.90
2226;DHT22;1119;48.288;8.726;2022-10-22T00:42:34;12.90;99.90
2226;DHT22;1119;48.288;8.726;2022-10-22T00:45:16;12.90;99.90
2226;DHT22;1119;48.288;8.726;2022-10-22T00:47:56;12.80;99.90
2226;DHT22;1119;48.288;8.726;2022-10-22T00:50:37;12.90;99.90
2226;DHT22;1119;48.288;8.726;2022-10-22T00:53:13;12.90;99.90
2226;DHT22;1119;48.288;8.726;2022-10-22T00:55:48;12.80;99.90
2226;DHT22;1119;48.288;8.726;2022-10-22T00:58:28;12.90;99.90
2226;DHT22;1119;48.288;8.726;2022-10-22T01:01:09;12.80;99.90
2226;DHT22;1119;48.288;8.726;2022-10-22T01:03:44;12.80;99.90
2226;DHT22;1119;48.288;8.726;2022-10-22T01:06:24;12.70;99.90
2226;DHT22;1119;48.288;8.726;2022-10-22T01:09:04;12.70;99.90
2226;DHT22;1119;48.288;8.726;2022-10-22T01:11:50;12.70;99.90
2226;DHT22;1119;48.288;8.726;2022-10-22T01:14:33;12.60;99.90
2226;DHT22;1119;48.288;8.726;2022-10-22T01:17:23;12.60;99.90
2226;DHT22;1119;48.288;8.726;2022-10-22T01:20:22;12.60;99.90
2226;DHT22;1119;48.288;8.726;2022-10-22T01:23:47;12.60;99.90
2226;DHT22;1119;48.288;8.726;2022-10-22T01:26:56;12.50;99.90
2226;DHT22;1119;48.288;8.726;2022-10-22T01:29:48;12.50;99.90
2226;DHT22;1119;48.288;8.726;2022-10-22T01:32:37;12.50;99.90
2226;DHT22;1119;48.288;8.726;2022-10-22T01:35:22;12.50;99.90
2226;DHT22;1119;48.288;8.726;2022-10-22T01:38:05;12.40;99.90
2226;DHT22;1119;48.288;8.726;2022-10-22T01:40:42;12.40;99.90
2226;DHT22;1119;48.288;8.726;2022-10-22T01:43:15;12.40;99.90
2226;DHT22;1119;48.288;8.726;2022-10-22T01:45:50;12.40;99.90
2226;DHT22;1119;48.288;8.726;2022-10-22T01:48:37;12.30;99.90
2226;DHT22;1119;48.288;8.726;2022-10-22T01:51:38;12.30;99.90
2226;DHT22;1119;48.288;8.726;2022-10-22T01:54:28;12.30;99.90
2226;DHT22;1119;48.288;8.726;2022-10-22T01:57:09;12.30;99.90
2226;DHT22;1119;48.288;8.726;2022-10-22T01:59:53;12.30;99.90
2226;DHT22;1119;48.288;8.726;2022-10-22T02:02:38;12.30;99.90
2226;DHT22;1119;48.288;8.726;2022-10-22T02:05:18;12.30;99.90
2226;DHT22;1119;48.288;8.726;2022-10-22T02:07:56;12.40;99.90
2226;DHT22;1119;48.288;8.726;2022-10-22T02:10:31;12.30;99.90
2226;DHT22;1119;48.288;8.726;2022-10-22T02:13:06;12.30;99.90
2226;DHT22;1119;48.288;8.726;2022-10-22T02:15:43;12.50;99.90
2226;DHT22;1119;48.288;8.726;2022-10-22T02:18:24;12.30;99.90
2226;DHT22;1119;48.288;8.726;2022-10-22T02:20:59;12.40;99.90
2226;DHT22;1119;48.288;8.726;2022-10-22T02:23:30;12.30;99.90
2226;DHT22;1119;48.288;8.726;2022-10-22T02:26:06;11.60;99.90
2226;DHT22;1119;48.288;8.726;2022-10-22T02:28:46;12.30;99.90
2226;DHT22;1119;48.288;8.726;2022-10-22T02:31:25;12.40;99.90
2226;DHT22;1119;48.288;8.726;2022-10-22T02:34:02;12.30;99.90
2226;DHT22;1119;48.288;8.726;2022-10-22T02:36:38;12.20;99.90
2226;DHT22;1119;48.288;8.726;2022-10-22T02:39:12;12.20;99.90
2226;DHT22;1119;48.288;8.726;2022-10-22T02:41:47;12.20;99.90
2226;DHT22;1119;48.288;8.726;2022-10-22T02:44:20;12.20;99.90
2226;DHT22;1119;48.288;8.726;2022-10-22T02:46:52;12.20;99.90
2226;DHT22;1119;48.288;8.726;2022-10-22T02:49:25;12.20;99.90
2226;DHT22;1119;48.288;8.726;2022-10-22T02:51:59;12.10;99.90
2226;DHT22;1119;48.288;8.726;2022-10-22T02:54:31;12.10;99.90
2226;DHT22;1119;48.288;8.726;2022-10-22T02:57:10;12.10;99.90
2226;DHT22;1119;48.288;8.726;2022-10-22T02:59:42;12.10;99.90
2226;DHT22;1119;48.288;8.726;2022-10-22T03:02:17;12.10;99.90
2226;DHT22;1119;48.288;8.726;2022-10-22T03:04:52;12.10;99.90
2226;DHT22;1119;48.288;8.726;2022-10-22T03:07:23;12.10;99.90
2226;DHT22;1119;48.288;8.726;2022-10-22T03:09:57;12.10;99.90
2226;DHT22;1119;48.288;8.726;2022-10-22T03:12:29;12.10;99.90
2226;DHT22;1119;48.288;8.726;2022-10-22T03:15:07;12.10;99.90
2226;DHT22;1119;48.288;8.726;2022-10-22T03:18:07;12.10;99.90
2226;DHT22;1119;48.288;8.726;2022-10-22T03:21:03;12.00;99.90
2226;DHT22;1119;48.288;8.726;2022-10-22T03:23:44;12.10;99.90
2226;DHT22;1119;48.288;8.726;2022-10-22T03:26:19;12.10;99.90
2226;DHT22;1119;48.288;8.726;2022-10-22T03:28:54;12.00;99.90
2226;DHT22;1119;48.288;8.726;2022-10-22T03:31:29;12.00;99.90
2226;DHT22;1119;48.288;8.726;2022-10-22T03:34:12;12.10;99.90
2226;DHT22;1119;48.288;8.726;2022-10-22T03:37:14;12.00;99.90
2226;DHT22;1119;48.288;8.726;2022-10-22T03:40:02;12.00;99.90
2226;DHT22;1119;48.288;8.726;2022-10-22T03:42:42;12.00;99.90
2226;DHT22;1119;48.288;8.726;2022-10-22T03:45:22;12.00;99.90
2226;DHT22;1119;48.288;8.726;2022-10-22T03:48:07;12.00;99.90
2226;DHT22;1119;48.288;8.726;2022-10-22T03:50:40;12.00;99.90
2226;DHT22;1119;48.288;8.726;2022-10-22T03:53:18;12.00;99.90
2226;DHT22;1119;48.288;8.726;2022-10-22T03:55:49;12.00;99.90
2226;DHT22;1119;48.288;8.726;2022-10-22T03:58:21;12.00;99.90
2226;DHT22;1119;48.288;8.726;2022-10-22T04:00:52;11.90;99.90
2226;DHT22;1119;48.288;8.726;2022-10-22T04:03:26;11.90;99.90
2226;DHT22;1119;48.288;8.726;2022-10-22T04:06:06;11.90;99.90
2226;DHT22;1119;48.288;8.726;2022-10-22T04:08:41;11.90;99.90
2226;DHT22;1119;48.288;8.726;2022-10-22T04:11:13;11.80;99.90
2226;DHT22;1119;48.288;8.726;2022-10-22T04:13:45;11.90;99.90
2226;DHT22;1119;48.288;8.726;2022-10-22T04:16:20;11.90;99.90
2226;DHT22;1119;48.288;8.726;2022-10-22T04:18:57;11.90;99.90
2226;DHT22;1119;48.288;8.726;2022-10-22T04:21:30;11.80;99.90
2226;DHT22;1119;48.288;8.726;2022-10-22T04:24:02;11.80;99.90
2226;DHT22;1119;48.288;8.726;2022-10-22T04:26:34;11.80;99.90
2226;DHT22;1119;48.288;8.726;2022-10-22T04:29:08;11.90;99.90
2226;DHT22;1119;48.288;8.726;2022-10-22T04:31:42;11.90;99.90
2226;DHT22;1119;48.288;8.726;2022-10-22T04:34:14;11.80;99.90
2226;DHT22;1119;48.288;8.726;2022-10-22T04:36:47;11.80;99.90
2226;DHT22;1119;48.288;8.726;2022-10-22T04:39:20;11.90;99.90
2226;DHT22;1119;48.288;8.726;2022-10-22T04:41:57;11.80;99.90
2226;DHT22;1119;48.288;8.726;2022-10-22T04:44:32;11.80;99.90
2226;DHT22;1119;48.288;8.726;2022-10-22T04:47:04;11.90;99.90
2226;DHT22;1119;48.288;8.726;2022-10-22T04:49:37;11.90;99.90
2226;DHT22;1119;48.288;8.726;2022-10-22T04:52:11;12.00;99.90
2226;DHT22;1119;48.288;8.726;2022-10-22T04:54:48;12.00;99.90
2226;DHT22;1119;48.288;8.726;2022-10-22T04:57:31;12.00;99.90
2226;DHT22;1119;48.288;8.726;2022-10-22T05:00:04;12.00;99.90
2226;DHT22;1119;48.288;8.726;2022-10-22T05:02:36;11.90;99.90
2226;DHT22;1119;48.288;8.726;2022-10-22T05:05:08;12.00;99.90
2226;DHT22;1119;48.288;8.726;2022-10-22T05:07:40;12.00;99.90
2226;DHT22;1119;48.288;8.726;2022-10-22T05:10:14;12.00;99.90
2226;DHT22;1119;48.288;8.726;2022-10-22T05:12:45;12.00;99.90
2226;DHT22;1119;48.288;8.726;2022-10-22T05:15:17;12.00;99.90
2226;DHT22;1119;48.288;8.726;2022-10-22T05:17:49;12.10;99.90
2226;DHT22;1119;48.288;8.726;2022-10-22T05:20:22;12.00;99.90
2226;DHT22;1119;48.288;8.726;2022-10-22T05:22:53;12.00;99.90
2226;DHT22;1119;48.288;8.726;2022-10-22T05:25:29;12.00;99.90
2226;DHT22;1119;48.288;8.726;2022-10-22T05:28:02;12.00;99.90
2226;DHT22;1119;48.288;8.726;2022-10-22T05:30:35;12.00;99.90
2226;DHT22;1119;48.288;8.726;2022-10-22T05:33:08;12.00;99.90
2226;DHT22;1119;48.288;8.726;2022-10-22T05:35:39;12.00;99.90
2226;DHT22;1119;48.288;8.726;2022-10-22T05:38:12;12.00;99.90
2226;DHT22;1119;48.288;8.726;2022-10-22T05:40:47;12.00;99.90
2226;DHT22;1119;48.288;8.726;2022-10-22T05:43:29;12.00;99.90
2226;DHT22;1119;48.288;8.726;2022-10-22T05:46:03;11.90;99.90
2226;DHT22;1119;48.288;8.726;2022-10-22T05:48:36;11.90;99.90
2226;DHT22;1119;48.288;8.726;2022-10-22T05:51:10;11.90;99.90
2226;DHT22;1119;48.288;8.726;2022-10-22T05:53:41;12.00;99.90
2226;DHT22;1119;48.288;8.726;2022-10-22T05:56:15;12.00;99.90
2226;DHT22;1119;48.288;8.726;2022-10-22T05:58:45;12.00;99.90
2226;DHT22;1119;48.288;8.726;2022-10-22T06:01:18;12.10;99.90
2226;DHT22;1119;48.288;8.726;2022-10-22T06:03:52;12.10;99.90
2226;DHT22;1119;48.288;8.726;2022-10-22T06:06:26;12.20;99.90
2226;DHT22;1119;48.288;8.726;2022-10-22T06:09:02;12.20;99.90
2226;DHT22;1119;48.288;8.726;2022-10-22T06:11:34;12.20;99.90
2226;DHT22;1119;48.288;8.726;2022-10-22T06:14:03;12.20;99.90
2226;DHT22;1119;48.288;8.726;2022-10-22T06:16:33;12.20;99.90
2226;DHT22;1119;48.288;8.726;2022-10-22T06:19:03;12.20;99.90
2226;DHT22;1119;48.288;8.726;2022-10-22T06:21:33;12.20;99.90
2226;DHT22;1119;48.288;8.726;2022-10-22T06:24:03;12.20;99.90
2226;DHT22;1119;48.288;8.726;2022-10-22T06:26:41;12.20;99.90
2226;DHT22;1119;48.288;8.726;2022-10-22T06:29:17;12.20;99.90
2226;DHT22;1119;48.288;8.726;2022-10-22T06:31:49;12.20;99.90
2226;DHT22;1119;48.288;8.726;2022-10-22T06:34:22;12.30;99.90
2226;DHT22;1119;48.288;8.726;2022-10-22T06:36:51;12.30;99.90
2226;DHT22;1119;48.288;8.726;2022-10-22T06:39:22;12.30;99.90
2226;DHT22;1119;48.288;8.726;2022-10-22T06:41:55;12.40;99.90
2226;DHT22;1119;48.288;8.726;2022-10-22T06:44:32;12.40;99.90
2226;DHT22;1119;48.288;8.726;2022-10-22T06:47:03;12.40;99.90
2226;DHT22;1119;48.288;8.726;2022-10-22T06:49:33;12.40;99.90
2226;DHT22;1119;48.288;8.726;2022-10-22T06:52:05;12.50;99.90
2226;DHT22;1119;48.288;8.726;2022-10-22T06:54:36;12.50;99.90
2226;DHT22;1119;48.288;8.726;2022-10-22T06:57:09;12.50;99.90
2226;DHT22;1119;48.288;8.726;2022-10-22T06:59:39;12.50;99.90
2226;DHT22;1119;48.288;8.726;2022-10-22T07:02:10;12.60;99.90
2226;DHT22;1119;48.288;8.726;2022-10-22T07:04:40;12.60;99.90
2226;DHT22;1119;48.288;8.726;2022-10-22T07:07:11;12.60;99.90
2226;DHT22;1119;48.288;8.726;2022-10-22T07:09:43;12.70;99.90
2226;DHT22;1119;48.288;8.726;2022-10-22T07:12:17;12.80;99.90
2226;DHT22;1119;48.288;8.726;2022-10-22T07:14:49;13.00;99.90
2226;DHT22;1119;48.288;8.726;2022-10-22T07:17:20;13.10;99.90
2226;DHT22;1119;48.288;8.726;2022-10-22T07:19:51;13.30;99.90
2226;DHT22;1119;48.288;8.726;2022-10-22T07:22:23;13.50;99.90
2226;DHT22;1119;48.288;8.726;2022-10-22T07:24:56;13.40;99.90
2226;DHT22;1119;48.288;8.726;2022-10-22T07:27:30;13.50;99.90
2226;DHT22;1119;48.288;8.726;2022-10-22T07:30:03;13.50;99.90
2226;DHT22;1119;48.288;8.726;2022-10-22T07:32:40;13.50;99.90
2226;DHT22;1119;48.288;8.726;2022-10-22T07:35:11;13.70;99.90
2226;DHT22;1119;48.288;8.726;2022-10-22T07:37:43;13.80;99.90
2226;DHT22;1119;48.288;8.726;2022-10-22T07:40:20;14.10;99.90
2226;DHT22;1119;48.288;8.726;2022-10-22T07:42:53;14.00;99.90
2226;DHT22;1119;48.288;8.726;2022-10-22T07:45:24;14.00;99.90
2226;DHT22;1119;48.288;8.726;2022-10-22T07:47:56;14.00;99.90
2226;DHT22;1119;48.288;8.726;2022-10-22T07:50:27;14.00;99.90
2226;DHT22;1119;48.288;8.726;2022-10-22T07:52:57;14.00;99.90
2226;DHT22;1119;48.288;8.726;2022-10-22T07:55:28;14.00;99.90
2226;DHT22;1119;48.288;8.726;2022-10-22T07:58:00;14.00;99.90
2226;DHT22;1119;48.288;8.726;2022-10-22T08:00:30;13.90;99.90
2226;DHT22;1119;48.288;8.726;2022-10-22T08:03:01;14.00;99.90
2226;DHT22;1119;48.288;8.726;2022-10-22T08:05:34;14.00;99.90
2226;DHT22;1119;48.288;8.726;2022-10-22T08:08:04;14.10;99.90
2226;DHT22;1119;48.288;8.726;2022-10-22T08:10:40;14.10;99.90
2226;DHT22;1119;48.288;8.726;2022-10-22T08:13:20;14.10;99.90
2226;DHT22;1119;48.288;8.726;2022-10-22T08:15:51;14.00;99.90
2226;DHT22;1119;48.288;8.726;2022-10-22T08:18:21;14.10;99.90
2226;DHT22;1119;48.288;8.726;2022-10-22T08:20:53;14.10;99.90
2226;DHT22;1119;48.288;8.726;2022-10-22T08:23:23;14.40;99.90
2226;DHT22;1119;48.288;8.726;2022-10-22T08:25:55;15.20;99.90
2226;DHT22;1119;48.288;8.726;2022-10-22T08:28:28;16.40;99.90
2226;DHT22;1119;48.288;8.726;2022-10-22T08:31:03;17.70;99.90
2226;DHT22;1119;48.288;8.726;2022-10-22T08:33:34;19.20;99.90
2226;DHT22;1119;48.288;8.726;2022-10-22T08:36:06;20.00;99.90
2226;DHT22;1119;48.288;8.726;2022-10-22T08:38:37;20.40;99.90
2226;DHT22;1119;48.288;8.726;2022-10-22T08:41:14;20.10;99.90
2226;DHT22;1119;48.288;8.726;2022-10-22T08:44:21;19.60;99.90
2226;DHT22;1119;48.288;8.726;2022-10-22T08:47:19;18.90;99.90
2226;DHT22;1119;48.288;8.726;2022-10-22T08:49:58;18.30;99.90
2226;DHT22;1119;48.288;8.726;2022-10-22T08:52:32;18.00;99.90
2226;DHT22;1119;48.288;8.726;2022-10-22T08:55:04;18.00;99.90
2226;DHT22;1119;48.288;8.726;2022-10-22T08:57:48;18.30;99.90
2226;DHT22;1119;48.288;8.726;2022-10-22T09:00:39;18.30;99.90
2226;DHT22;1119;48.288;8.726;2022-10-22T09:03:27;18.30;99.90
2226;DHT22;1119;48.288;8.726;2022-10-22T09:06:12;18.30;99.90
2226;DHT22;1119;48.288;8.726;2022-10-22T09:08:47;18.20;99.90
2226;DHT22;1119;48.288;8.726;2022-10-22T09:11:23;18.10;99.90
2226;DHT22;1119;48.288;8.726;2022-10-22T09:13:57;18.10;99.90
2226;DHT22;1119;48.288;8.726;2022-10-22T09:16:35;18.00;99.90
2226;DHT22;1119;48.288;8.726;2022-10-22T09:19:19;17.50;99.90
2226;DHT22;1119;48.288;8.726;2022-10-22T09:21:57;17.70;99.90
2226;DHT22;1119;48.288;8.726;2022-10-22T09:24:35;17.70;99.90
2226;DHT22;1119;48.288;8.726;2022-10-22T09:27:10;17.60;99.90
2226;DHT22;1119;48.288;8.726;2022-10-22T09:29:43;17.60;99.90
2226;DHT22;1119;48.288;8.726;2022-10-22T09:32:17;17.50;99.90
2226;DHT22;1119;48.288;8.726;2022-10-22T09:34:55;17.50;99.90
2226;DHT22;1119;48.288;8.726;2022-10-22T09:37:28;17.60;99.90
2226;DHT22;1119;48.288;8.726;2022-10-22T09:40:05;17.50;99.90
2226;DHT22;1119;48.288;8.726;2022-10-22T09:42:36;17.60;99.90
2226;DHT22;1119;48.288;8.726;2022-10-22T09:45:16;17.60;99.90
2226;DHT22;1119;48.288;8.726;2022-10-22T09:48:03;17.70;99.90
2226;DHT22;1119;48.288;8.726;2022-10-22T09:50:43;17.80;99.90
2226;DHT22;1119;48.288;8.726;2022-10-22T09:53:19;17.90;99.90
2226;DHT22;1119;48.288;8.726;2022-10-22T09:55:53;17.90;99.90
2226;DHT22;1119;48.288;8.726;2022-10-22T09:58:25;17.90;99.90
2226;DHT22;1119;48.288;8.726;2022-10-22T10:00:58;17.80;99.90
2226;DHT22;1119;48.288;8.726;2022-10-22T10:03:33;17.80;99.90
2226;DHT22;1119;48.288;8.726;2022-10-22T10:06:06;17.80;99.90
2226;DHT22;1119;48.288;8.726;2022-10-22T10:08:37;17.70;99.90
2226;DHT22;1119;48.288;8.726;2022-10-22T10:11:10;17.70;99.90
2226;DHT22;1119;48.288;8.726;2022-10-22T10:13:57;17.70;99.90
2226;DHT22;1119;48.288;8.726;2022-10-22T10:16:46;17.60;99.90
2226;DHT22;1119;48.288;8.726;2022-10-22T10:19:35;17.60;99.90
2226;DHT22;1119;48.288;8.726;2022-10-22T10:22:21;17.40;99.90
2226;DHT22;1119;48.288;8.726;2022-10-22T10:25:13;17.30;99.90
2226;DHT22;1119;48.288;8.726;2022-10-22T10:27:57;17.40;99.90
2226;DHT22;1119;48.288;8.726;2022-10-22T10:30:37;17.30;99.90
2226;DHT22;1119;48.288;8.726;2022-10-22T10:33:21;17.30;99.90
2226;DHT22;1119;48.288;8.726;2022-10-22T10:36:05;17.30;99.90
2226;DHT22;1119;48.288;8.726;2022-10-22T10:38:44;17.20;99.90
2226;DHT22;1119;48.288;8.726;2022-10-22T10:41:26;17.10;99.90
2226;DHT22;1119;48.288;8.726;2022-10-22T10:47:19;17.10;99.90
2226;DHT22;1119;48.288;8.726;2022-10-22T10:50:16;17.30;99.90
2226;DHT22;1119;48.288;8.726;2022-10-22T10:52:56;17.40;99.90
2226;DHT22;1119;48.288;8.726;2022-10-22T10:55:37;17.60;99.90
2226;DHT22;1119;48.288;8.726;2022-10-22T10:58:20;17.80;99.90
2226;DHT22;1119;48.288;8.726;2022-10-22T11:00:56;18.10;99.90
2226;DHT22;1119;48.288;8.726;2022-10-22T11:03:44;18.40;99.90
2226;DHT22;1119;48.288;8.726;2022-10-22T11:06:31;18.60;99.90
2226;DHT22;1119;48.288;8.726;2022-10-22T11:09:07;18.70;99.90
2226;DHT22;1119;48.288;8.726;2022-10-22T11:11:52;18.60;99.90
2226;DHT22;1119;48.288;8.726;2022-10-22T11:14:29;18.50;99.90
2226;DHT22;1119;48.288;8.726;2022-10-22T11:17:09;18.50;99.90
2226;DHT22;1119;48.288;8.726;2022-10-22T11:19:46;18.60;99.90
2226;DHT22;1119;48.288;8.726;2022-10-22T11:22:25;18.60;99.70
2226;DHT22;1119;48.288;8.726;2022-10-22T11:25:03;18.60;99.40
2226;DHT22;1119;48.288;8.726;2022-10-22T11:27:46;18.50;98.00
2226;DHT22;1119;48.288;8.726;2022-10-22T11:30:22;18.30;97.70
2226;DHT22;1119;48.288;8.726;2022-10-22T11:33:04;18.20;98.20
2226;DHT22;1119;48.288;8.726;2022-10-22T11:35:42;18.20;98.60
2226;DHT22;1119;48.288;8.726;2022-10-22T11:38:17;18.10;98.70
2226;DHT22;1119;48.288;8.726;2022-10-22T11:40:57;18.30;99.60
2226;DHT22;1119;48.288;8.726;2022-10-22T11:43:32;18.60;99.60
2226;DHT22;1119;48.288;8.726;2022-10-22T11:46:34;18.80;99.20
2226;DHT22;1119;48.288;8.726;2022-10-22T11:49:23;19.20;98.10
2226;DHT22;1119;48.288;8.726;2022-10-22T11:52:23;19.40;98.30
2226;DHT22;1119;48.288;8.726;2022-10-22T11:55:00;19.60;97.40
2226;DHT22;1119;48.288;8.726;2022-10-22T11:57:38;19.80;96.20
2226;DHT22;1119;48.288;8.726;2022-10-22T12:00:34;20.00;95.60
2226;DHT22;1119;48.288;8.726;2022-10-22T12:03:23;20.20;95.10
2226;DHT22;1119;48.288;8.726;2022-10-22T12:06:18;20.30;95.80
2226;DHT22;1119;48.288;8.726;2022-10-22T12:08:55;20.50;93.90
2226;DHT22;1119;48.288;8.726;2022-10-22T12:11:34;20.40;92.10
2226;DHT22;1119;48.288;8.726;2022-10-22T12:14:19;20.40;91.30
2226;DHT22;1119;48.288;8.726;2022-10-22T12:16:57;20.50;91.10
2226;DHT22;1119;48.288;8.726;2022-10-22T12:19:34;20.50;91.10
2226;DHT22;1119;48.288;8.726;2022-10-22T12:22:14;20.40;90.60
2226;DHT22;1119;48.288;8.726;2022-10-22T12:24:48;20.30;89.20
2226;DHT22;1119;48.288;8.726;2022-10-22T12:27:26;20.20;90.20
2226;DHT22;1119;48.288;8.726;2022-10-22T12:30:00;20.30;90.70
2226;DHT22;1119;48.288;8.726;2022-10-22T12:32:41;20.30;89.80
2226;DHT22;1119;48.288;8.726;2022-10-22T12:35:15;20.30;87.90
2226;DHT22;1119;48.288;8.726;2022-10-22T12:37:49;20.10;88.20
2226;DHT22;1119;48.288;8.726;2022-10-22T12:40:24;20.10;88.10
2226;DHT22;1119;48.288;8.726;2022-10-22T12:42:58;20.10;89.00
2226;DHT22;1119;48.288;8.726;2022-10-22T12:45:33;20.10;89.50
2226;DHT22;1119;48.288;8.726;2022-10-22T12:48:10;20.10;89.00
2226;DHT22;1119;48.288;8.726;2022-10-22T12:50:47;20.10;88.90
2226;DHT22;1119;48.288;8.726;2022-10-22T12:53:23;20.10;85.40
2226;DHT22;1119;48.288;8.726;2022-10-22T12:55:59;20.00;86.20
2226;DHT22;1119;48.288;8.726;2022-10-22T12:58:35;20.00;86.60
2226;DHT22;1119;48.288;8.726;2022-10-22T13:01:15;20.00;87.70
2226;DHT22;1119;48.288;8.726;2022-10-22T13:03:51;19.90;88.10
2226;DHT22;1119;48.288;8.726;2022-10-22T13:06:35;19.80;88.30
2226;DHT22;1119;48.288;8.726;2022-10-22T13:09:13;19.70;89.60
2226;DHT22;1119;48.288;8.726;2022-10-22T13:11:50;19.60;88.20
2226;DHT22;1119;48.288;8.726;2022-10-22T13:14:30;19.50;88.60
2226;DHT22;1119;48.288;8.726;2022-10-22T13:17:11;19.50;88.60
2226;DHT22;1119;48.288;8.726;2022-10-22T13:19:45;19.50;88.40
2226;DHT22;1119;48.288;8.726;2022-10-22T13:22:27;19.50;88.80
2226;DHT22;1119;48.288;8.726;2022-10-22T13:25:16;19.40;89.90
2226;DHT22;1119;48.288;8.726;2022-10-22T13:27:51;19.30;89.50
2226;DHT22;1119;48.288;8.726;2022-10-22T13:30:25;19.30;89.50
2226;DHT22;1119;48.288;8.726;2022-10-22T13:33:01;19.30;89.30
2226;DHT22;1119;48.288;8.726;2022-10-22T13:35:34;19.20;90.50
2226;DHT22;1119;48.288;8.726;2022-10-22T13:38:13;19.20;90.50
2226;DHT22;1119;48.288;8.726;2022-10-22T13:40:45;19.10;90.60
2226;DHT22;1119;48.288;8.726;2022-10-22T13:43:18;19.10;90.60
2226;DHT22;1119;48.288;8.726;2022-10-22T13:45:52;19.00;90.80
2226;DHT22;1119;48.288;8.726;2022-10-22T13:48:27;19.00;90.50
2226;DHT22;1119;48.288;8.726;2022-10-22T13:50:58;18.90;90.90
2226;DHT22;1119;48.288;8.726;2022-10-22T13:53:30;18.80;90.90
2226;DHT22;1119;48.288;8.726;2022-10-22T13:56:01;18.70;91.40
2226;DHT22;1119;48.288;8.726;2022-10-22T13:58:32;18.70;92.00
2226;DHT22;1119;48.288;8.726;2022-10-22T14:01:02;18.70;92.20
2226;DHT22;1119;48.288;8.726;2022-10-22T14:03:37;18.60;91.80
2226;DHT22;1119;48.288;8.726;2022-10-22T14:06:12;18.60;92.00
2226;DHT22;1119;48.288;8.726;2022-10-22T14:08:45;18.60;92.20
2226;DHT22;1119;48.288;8.726;2022-10-22T14:11:24;18.60;92.10
2226;DHT22;1119;48.288;8.726;2022-10-22T14:13:57;18.60;92.40
2226;DHT22;1119;48.288;8.726;2022-10-22T14:16:30;18.70;92.80
2226;DHT22;1119;48.288;8.726;2022-10-22T14:19:06;18.60;92.30
2226;DHT22;1119;48.288;8.726;2022-10-22T14:21:38;18.60;92.50
2226;DHT22;1119;48.288;8.726;2022-10-22T14:24:09;18.60;92.60
2226;DHT22;1119;48.288;8.726;2022-10-22T14:26:40;18.50;92.80
2226;DHT22;1119;48.288;8.726;2022-10-22T14:29:11;18.60;93.50
2226;DHT22;1119;48.288;8.726;2022-10-22T14:31:44;18.50;93.40
2226;DHT22;1119;48.288;8.726;2022-10-22T14:34:16;18.60;93.50
2226;DHT22;1119;48.288;8.726;2022-10-22T14:36:47;18.50;92.90
2226;DHT22;1119;48.288;8.726;2022-10-22T14:39:18;18.50;93.10
2226;DHT22;1119;48.288;8.726;2022-10-22T14:41:48;18.50;93.00
2226;DHT22;1119;48.288;8.726;2022-10-22T14:44:19;18.50;93.00
2226;DHT22;1119;48.288;8.726;2022-10-22T14:46:50;18.60;93.10
2226;DHT22;1119;48.288;8.726;2022-10-22T14:49:24;18.50;93.00
2226;DHT22;1119;48.288;8.726;2022-10-22T14:51:55;18.50;93.00
2226;DHT22;1119;48.288;8.726;2022-10-22T14:54:27;18.50;93.10
2226;DHT22;1119;48.288;8.726;2022-10-22T14:56:57;18.40;92.90
2226;DHT22;1119;48.288;8.726;2022-10-22T14:59:28;18.50;93.20
2226;DHT22;1119;48.288;8.726;2022-10-22T15:01:59;18.50;92.90
2226;DHT22;1119;48.288;8.726;2022-10-22T15:04:31;18.50;92.80
2226;DHT22;1119;48.288;8.726;2022-10-22T15:07:03;18.50;93.00
2226;DHT22;1119;48.288;8.726;2022-10-22T15:09:35;18.50;93.60
2226;DHT22;1119;48.288;8.726;2022-10-22T15:12:08;18.50;93.00
2226;DHT22;1119;48.288;8.726;2022-10-22T15:14:43;18.50;92.40
2226;DHT22;1119;48.288;8.726;2022-10-22T15:17:13;18.40;92.30
2226;DHT22;1119;48.288;8.726;2022-10-22T15:19:46;18.40;92.40
2226;DHT22;1119;48.288;8.726;2022-10-22T15:22:16;18.40;92.90
2226;DHT22;1119;48.288;8.726;2022-10-22T15:24:47;18.40;92.90
2226;DHT22;1119;48.288;8.726;2022-10-22T15:27:19;18.40;92.70
2226;DHT22;1119;48.288;8.726;2022-10-22T15:29:49;18.50;92.80
2226;DHT22;1119;48.288;8.726;2022-10-22T15:32:20;18.40;92.90
2226;DHT22;1119;48.288;8.726;2022-10-22T15:34:53;18.50;92.20
2226;DHT22;1119;48.288;8.726;2022-10-22T15:37:24;18.40;91.10
2226;DHT22;1119;48.288;8.726;2022-10-22T15:39:56;18.40;91.50
2226;DHT22;1119;48.288;8.726;2022-10-22T15:42:27;18.30;91.60
2226;DHT22;1119;48.288;8.726;2022-10-22T15:44:59;18.30;91.40
2226;DHT22;1119;48.288;8.726;2022-10-22T15:47:31;18.30;91.80
2226;DHT22;1119;48.288;8.726;2022-10-22T15:50:05;18.30;91.60
2226;DHT22;1119;48.288;8.726;2022-10-22T15:52:36;18.30;91.70
2226;DHT22;1119;48.288;8.726;2022-10-22T15:55:07;18.20;91.50
2226;DHT22;1119;48.288;8.726;2022-10-22T15:57:38;18.10;91.40
2226;DHT22;1119;48.288;8.726;2022-10-22T16:00:10;18.10;91.60
2226;DHT22;1119;48.288;8.726;2022-10-22T16:02:42;18.00;91.50
2226;DHT22;1119;48.288;8.726;2022-10-22T16:05:16;18.00;91.30
2226;DHT22;1119;48.288;8.726;2022-10-22T16:07:48;18.00;91.70
2226;DHT22;1119;48.288;8.726;2022-10-22T16:10:22;17.90;91.60
2226;DHT22;1119;48.288;8.726;2022-10-22T16:12:56;17.90;91.60
2226;DHT22;1119;48.288;8.726;2022-10-22T16:15:27;17.80;91.60
2226;DHT22;1119;48.288;8.726;2022-10-22T16:17:59;17.80;91.90
2226;DHT22;1119;48.288;8.726;2022-10-22T16:20:37;17.70;92.50
2226;DHT22;1119;48.288;8.726;2022-10-22T16:23:08;17.60;93.20
2226;DHT22;1119;48.288;8.726;2022-10-22T16:25:41;17.60;93.40
2226;DHT22;1119;48.288;8.726;2022-10-22T16:28:12;17.50;93.60
2226;DHT22;1119;48.288;8.726;2022-10-22T16:30:44;17.30;94.10
2226;DHT22;1119;48.288;8.726;2022-10-22T16:33:14;17.30;94.50
2226;DHT22;1119;48.288;8.726;2022-10-22T16:35:48;17.20;94.50
2226;DHT22;1119;48.288;8.726;2022-10-22T16:38:19;17.20;94.40
2226;DHT22;1119;48.288;8.726;2022-10-22T16:40:49;17.20;94.50
2226;DHT22;1119;48.288;8.726;2022-10-22T16:43:21;17.10;94.50
2226;DHT22;1119;48.288;8.726;2022-10-22T16:45:52;17.10;94.80
2226;DHT22;1119;48.288;8.726;2022-10-22T16:48:23;17.10;94.80
2226;DHT22;1119;48.288;8.726;2022-10-22T16:50:57;17.20;94.90
2226;DHT22;1119;48.288;8.726;2022-10-22T16:53:28;17.00;94.90
2226;DHT22;1119;48.288;8.726;2022-10-22T16:55:58;16.80;95.20
2226;DHT22;1119;48.288;8.726;2022-10-22T16:58:29;16.80;95.50
2226;DHT22;1119;48.288;8.726;2022-10-22T17:01:03;16.70;95.70
2226;DHT22;1119;48.288;8.726;2022-10-22T17:03:35;16.60;96.10